createdAt,value
2023-02-19T00:00:55.491Z,7.73
2023-02-19T00:04:03.739Z,7.75
2023-02-19T00:07:06.310Z,7.50
2023-02-19T00:10:09.022Z,8.30
2023-02-19T00:13:12.209Z,7.93
2023-02-19T00:16:21.307Z,7.17
2023-02-19T00:19:24.700Z,7.63
2023-02-19T00:22:27.811Z,7.82
2023-02-19T00:25:30.492Z,7.38
2023-02-19T00:28:33.643Z,7.60
2023-02-19T00:31:36.543Z,7.87
2023-02-19T00:34:40.469Z,7.80
2023-02-19T00:37:43.192Z,7.97
2023-02-19T00:40:45.945Z,6.70
2023-02-19T00:43:59.885Z,7.45
2023-02-19T00:47:02.569Z,8.03
2023-02-19T00:50:06.796Z,7.57
2023-02-19T00:53:10.112Z,7.00
2023-02-19T00:56:12.755Z,7.00
2023-02-19T00:59:15.564Z,8.13
2023-02-19T01:02:18.516Z,7.43
2023-02-19T01:05:21.842Z,7.45
2023-02-19T01:08:25.086Z,7.18
2023-02-19T01:11:27.866Z,7.45
2023-02-19T01:14:30.500Z,6.63
2023-02-19T01:17:35.304Z,7.07
2023-02-19T01:20:44.606Z,7.70
2023-02-19T01:23:48.169Z,7.30
2023-02-19T01:26:50.974Z,7.30
2023-02-19T01:29:53.735Z,7.75
2023-02-19T01:32:56.475Z,6.33
2023-02-19T01:35:59.956Z,7.53
2023-02-19T01:39:05.710Z,7.35
2023-02-19T01:42:14.978Z,7.22
2023-02-19T01:45:30.254Z,7.10
2023-02-19T01:48:37.569Z,7.07
2023-02-19T01:52:00.361Z,7.57
2023-02-19T01:55:07.119Z,7.88
2023-02-19T01:58:10.641Z,6.93
2023-02-19T02:01:15.247Z,7.10
2023-02-19T02:04:19.162Z,7.63
2023-02-19T02:07:42.331Z,6.72
2023-02-19T02:10:45.148Z,7.80
2023-02-19T02:13:48.900Z,7.40
2023-02-19T02:16:54.506Z,7.43
2023-02-19T02:20:16.900Z,7.33
2023-02-19T02:23:19.827Z,7.15
2023-02-19T02:26:48.404Z,7.40
2023-02-19T02:29:51.032Z,6.90
2023-02-19T02:33:13.577Z,7.55
2023-02-19T02:36:25.429Z,6.43
2023-02-19T02:39:30.669Z,7.72
2023-02-19T02:42:35.858Z,7.00
2023-02-19T02:45:49.567Z,6.53
2023-02-19T02:49:19.572Z,7.10
2023-02-19T02:52:41.377Z,7.33
2023-02-19T02:55:47.734Z,7.78
2023-02-19T02:58:53.375Z,7.25
2023-02-19T03:02:14.662Z,7.78
2023-02-19T03:05:42.704Z,7.78
2023-02-19T03:08:54.075Z,7.80
2023-02-19T03:12:21.167Z,7.30
2023-02-19T03:15:48.532Z,6.90
2023-02-19T03:19:13.378Z,6.95
2023-02-19T03:22:20.092Z,6.78
2023-02-19T03:25:45.946Z,7.47
2023-02-19T03:29:12.194Z,6.88
2023-02-19T03:32:24.213Z,7.07
2023-02-19T03:35:43.637Z,7.28
2023-02-19T03:39:13.271Z,7.45
2023-02-19T03:42:51.367Z,6.37
2023-02-19T03:46:12.300Z,6.88
2023-02-19T03:49:23.809Z,6.88
2023-02-19T03:52:40.984Z,6.47
2023-02-19T03:56:10.300Z,6.88
2023-02-19T03:59:19.814Z,6.50
2023-02-19T04:02:37.789Z,7.32
2023-02-19T04:05:47.214Z,7.47
2023-02-19T04:08:54.765Z,6.97
2023-02-19T04:11:59.613Z,6.65
2023-02-19T04:15:06.662Z,7.43
2023-02-19T04:18:17.025Z,6.38
2023-02-19T04:21:21.216Z,6.70
2023-02-19T04:24:29.545Z,6.35
2023-02-19T04:27:33.156Z,6.78
2023-02-19T04:30:36.772Z,7.20
2023-02-19T04:33:39.546Z,6.95
2023-02-19T04:36:42.205Z,7.82
2023-02-19T04:39:44.820Z,7.53
2023-02-19T04:42:47.421Z,6.93
2023-02-19T04:45:50.197Z,6.57
2023-02-19T04:48:55.744Z,8.63
2023-02-19T04:51:58.926Z,6.53
2023-02-19T04:55:01.605Z,6.28
2023-02-19T04:58:04.420Z,6.68
2023-02-19T05:01:07.240Z,7.03
2023-02-19T05:04:09.921Z,7.03
2023-02-19T05:07:12.756Z,6.63
2023-02-19T05:10:15.536Z,6.40
2023-02-19T05:13:18.331Z,7.20
2023-02-19T05:16:21.068Z,8.70
2023-02-19T05:19:24.338Z,7.10
2023-02-19T05:22:29.890Z,6.65
2023-02-19T05:25:32.445Z,7.03
2023-02-19T05:28:35.307Z,7.72
2023-02-19T05:31:38.210Z,7.20
2023-02-19T05:34:40.935Z,6.78
2023-02-19T05:37:43.565Z,7.18
2023-02-19T05:40:47.943Z,6.97
2023-02-19T05:43:51.040Z,6.25
2023-02-19T05:46:53.707Z,6.87
2023-02-19T05:49:56.294Z,6.53
2023-02-19T05:53:02.881Z,7.35
2023-02-19T05:56:18.021Z,7.63
2023-02-19T05:59:24.527Z,6.97
2023-02-19T06:02:27.358Z,7.67
2023-02-19T06:05:30.018Z,6.20
2023-02-19T06:08:32.585Z,7.10
2023-02-19T06:11:36.347Z,6.45
2023-02-19T06:14:39.085Z,6.57
2023-02-19T06:17:41.772Z,7.13
2023-02-19T06:20:44.500Z,6.07
2023-02-19T06:23:47.549Z,7.22
2023-02-19T06:26:50.202Z,6.30
2023-02-19T06:29:52.841Z,6.68
2023-02-19T06:32:55.514Z,7.40
2023-02-19T06:36:00.160Z,6.85
2023-02-19T06:39:04.811Z,6.57
2023-02-19T06:42:07.607Z,6.10
2023-02-19T06:45:10.459Z,6.65
2023-02-19T06:48:13.649Z,6.20
2023-02-19T06:51:19.568Z,5.97
2023-02-19T06:54:22.339Z,6.60
2023-02-19T06:57:24.966Z,6.60
2023-02-19T07:00:27.733Z,6.85
2023-02-19T07:03:30.720Z,6.80
2023-02-19T07:06:34.645Z,7.20
2023-02-19T07:09:37.645Z,7.07
2023-02-19T07:12:40.369Z,6.80
2023-02-19T07:15:43.184Z,6.50
2023-02-19T07:18:46.133Z,5.70
2023-02-19T07:21:48.795Z,7.00
2023-02-19T07:24:51.387Z,7.00
2023-02-19T07:27:54.005Z,7.25
2023-02-19T07:31:04.401Z,7.38
2023-02-19T07:34:07.606Z,6.30
2023-02-19T07:37:10.194Z,6.72
2023-02-19T07:40:13.043Z,6.65
2023-02-19T07:43:15.686Z,6.15
2023-02-19T07:46:18.386Z,7.00
2023-02-19T07:49:21.324Z,6.40
2023-02-19T07:52:24.082Z,6.97
2023-02-19T07:55:26.662Z,6.40
2023-02-19T07:58:30.570Z,6.90
2023-02-19T08:01:52.109Z,6.45
2023-02-19T08:04:54.813Z,6.00
2023-02-19T08:07:58.686Z,6.53
2023-02-19T08:11:21.935Z,6.85
2023-02-19T08:14:28.735Z,6.72
2023-02-19T08:17:31.477Z,7.05
2023-02-19T08:20:34.123Z,6.33
2023-02-19T08:23:36.825Z,7.38
2023-02-19T08:26:39.445Z,6.47
2023-02-19T08:29:42.087Z,6.10
2023-02-19T08:32:44.740Z,6.90
2023-02-19T08:35:48.119Z,6.50
2023-02-19T08:38:50.815Z,6.07
2023-02-19T08:41:58.375Z,5.90
2023-02-19T08:45:01.155Z,6.40
2023-02-19T08:48:03.963Z,6.50
2023-02-19T08:51:11.174Z,6.47
2023-02-19T08:54:14.209Z,6.50
2023-02-19T08:57:16.914Z,6.03
2023-02-19T09:00:19.954Z,6.18
2023-02-19T09:03:22.702Z,5.90
2023-02-19T09:06:25.322Z,5.93
2023-02-19T09:09:28.054Z,6.22
2023-02-19T09:12:30.702Z,6.50
2023-02-19T09:15:33.627Z,6.85
2023-02-19T09:18:36.941Z,6.05
2023-02-19T09:21:39.590Z,6.03
2023-02-19T09:24:43.745Z,6.95
2023-02-19T09:27:46.427Z,6.80
2023-02-19T09:30:49.314Z,6.40
2023-02-19T09:33:52.218Z,6.00
2023-02-19T09:36:55.379Z,6.40
2023-02-19T09:39:58.057Z,6.03
2023-02-19T09:43:01.968Z,6.40
2023-02-19T09:46:40.538Z,6.10
2023-02-19T09:49:50.064Z,6.20
2023-02-19T09:53:01.716Z,6.27
2023-02-19T09:56:05.517Z,6.72
2023-02-19T09:59:20.907Z,5.97
2023-02-19T10:02:26.138Z,6.28
2023-02-19T10:05:30.047Z,6.57
2023-02-19T10:08:35.574Z,6.07
2023-02-19T10:11:38.771Z,6.45
2023-02-19T10:14:55.897Z,6.05
2023-02-19T10:17:59.385Z,6.50
2023-02-19T10:21:02.489Z,5.95
2023-02-19T10:24:07.469Z,6.23
2023-02-19T10:27:16.781Z,6.97
2023-02-19T10:30:24.873Z,6.40
2023-02-19T10:33:28.205Z,6.43
2023-02-19T10:36:39.498Z,6.57
2023-02-19T10:39:47.949Z,6.73
2023-02-19T10:42:56.706Z,6.35
2023-02-19T10:46:06.574Z,6.50
2023-02-19T10:49:28.181Z,6.30
2023-02-19T10:52:36.767Z,6.40
2023-02-19T10:55:41.580Z,6.37
2023-02-19T10:58:45.113Z,6.13
2023-02-19T11:02:03.055Z,6.00
2023-02-19T11:05:10.236Z,5.72
2023-02-19T11:08:23.927Z,5.78
2023-02-19T11:11:39.020Z,6.20
2023-02-19T11:14:44.619Z,6.57
2023-02-19T11:17:55.751Z,6.05
2023-02-19T11:21:06.296Z,5.45
2023-02-19T11:24:29.186Z,6.03
2023-02-19T11:27:32.588Z,7.13
2023-02-19T11:30:44.056Z,5.93
2023-02-19T11:34:00.527Z,5.85
2023-02-19T11:37:13.869Z,5.88
2023-02-19T11:40:16.927Z,5.35
2023-02-19T11:43:38.304Z,5.60
2023-02-19T11:46:54.333Z,6.63
2023-02-19T11:50:17.579Z,6.25
2023-02-19T11:53:28.837Z,6.25
2023-02-19T11:56:36.732Z,5.70
2023-02-19T11:59:43.159Z,6.07
2023-02-19T12:03:05.366Z,5.70
2023-02-19T12:06:24.047Z,6.32
2023-02-19T12:09:54.351Z,6.55
2023-02-19T12:13:30.852Z,6.00
2023-02-19T12:17:07.551Z,6.00
2023-02-19T12:20:20.756Z,6.13
2023-02-19T12:23:45.643Z,6.18
2023-02-19T12:27:08.477Z,6.38
2023-02-19T12:30:35.934Z,5.63
2023-02-19T12:34:03.916Z,6.00
2023-02-19T12:37:26.492Z,6.10
2023-02-19T12:40:57.932Z,5.97
2023-02-19T12:44:21.343Z,5.95
2023-02-19T12:47:34.502Z,5.85
2023-02-19T12:50:41.874Z,6.07
2023-02-19T12:53:59.799Z,6.13
2023-02-19T12:57:06.715Z,6.55
2023-02-19T13:00:22.305Z,6.00
2023-02-19T13:03:54.325Z,6.07
2023-02-19T13:07:03.716Z,5.67
2023-02-19T13:10:28.470Z,6.20
2023-02-19T13:13:44.741Z,6.20
2023-02-19T13:16:53.916Z,5.45
2023-02-19T13:20:02.658Z,5.80
2023-02-19T13:23:33.839Z,6.40
2023-02-19T13:26:54.909Z,5.72
2023-02-19T13:30:06.659Z,6.68
2023-02-19T13:33:30.872Z,6.38
2023-02-19T13:36:36.797Z,5.68
2023-02-19T13:39:50.247Z,5.90
2023-02-19T13:42:58.375Z,5.72
2023-02-19T13:46:12.898Z,6.00
2023-02-19T13:49:25.559Z,5.65
2023-02-19T13:52:33.625Z,6.20
2023-02-19T13:55:43.651Z,6.10
2023-02-19T13:58:55.199Z,6.47
2023-02-19T14:01:57.878Z,6.03
2023-02-19T14:05:05.262Z,6.00
2023-02-19T14:08:09.879Z,5.90
2023-02-19T14:11:14.718Z,6.17
2023-02-19T14:14:25.394Z,5.93
2023-02-19T14:17:44.162Z,5.53
2023-02-19T14:20:48.179Z,6.05
2023-02-19T14:23:59.850Z,5.97
2023-02-19T14:27:05.298Z,6.23
2023-02-19T14:30:13.701Z,5.88
2023-02-19T14:33:40.941Z,5.82
2023-02-19T14:36:50.680Z,5.60
2023-02-19T14:39:58.263Z,6.32
2023-02-19T14:43:07.192Z,5.57
2023-02-19T14:46:26.203Z,5.50
2023-02-19T14:49:51.971Z,5.68
2023-02-19T14:53:04.816Z,6.55
2023-02-19T14:56:32.770Z,6.28
2023-02-19T14:59:36.805Z,6.23
2023-02-19T15:02:44.145Z,5.78
2023-02-19T15:06:00.273Z,6.25
2023-02-19T15:09:10.664Z,5.43
2023-02-19T15:12:23.764Z,6.32
2023-02-19T15:15:33.531Z,5.87
2023-02-19T15:18:39.148Z,5.75
2023-02-19T15:21:51.851Z,6.00
2023-02-19T15:24:56.341Z,5.60
2023-02-19T15:28:24.517Z,6.28
2023-02-19T15:31:29.647Z,5.83
2023-02-19T15:34:33.636Z,5.82
2023-02-19T15:37:39.887Z,6.55
2023-02-19T15:40:49.469Z,5.13
2023-02-19T15:44:07.382Z,6.53
2023-02-19T15:47:35.653Z,6.30
2023-02-19T15:50:52.533Z,5.75
2023-02-19T15:54:09.062Z,5.45
2023-02-19T15:57:20.388Z,6.05
2023-02-19T16:00:38.313Z,6.25
2023-02-19T16:03:44.086Z,5.90
2023-02-19T16:06:55.028Z,5.50
2023-02-19T16:10:29.673Z,5.97
2023-02-19T16:13:35.901Z,5.50
2023-02-19T16:16:42.249Z,5.75
2023-02-19T16:19:48.785Z,6.00
2023-02-19T16:22:53.339Z,5.60
2023-02-19T16:26:01.664Z,6.88
2023-02-19T16:29:06.527Z,5.82
2023-02-19T16:32:17.660Z,5.70
2023-02-19T16:35:42.227Z,5.90
2023-02-19T16:39:04.880Z,5.88
2023-02-19T16:42:14.150Z,6.07
2023-02-19T16:45:19.768Z,5.53
2023-02-19T16:48:24.843Z,5.85
2023-02-19T16:51:29.505Z,6.87
2023-02-19T16:54:35.921Z,5.88
2023-02-19T16:57:39.816Z,5.72
2023-02-19T17:00:43.797Z,5.90
2023-02-19T17:03:48.666Z,5.60
2023-02-19T17:06:55.414Z,5.37
2023-02-19T17:09:59.536Z,5.80
2023-02-19T17:13:03.485Z,5.88
2023-02-19T17:16:10.348Z,6.05
2023-02-19T17:19:18.728Z,5.38
2023-02-19T17:22:24.110Z,5.63
2023-02-19T17:25:28.300Z,5.57
2023-02-19T17:28:32.339Z,6.25
2023-02-19T17:31:36.958Z,5.88
2023-02-19T17:34:42.590Z,5.90
2023-02-19T17:37:47.875Z,6.07
2023-02-19T17:40:51.798Z,5.55
2023-02-19T17:44:00.225Z,5.30
2023-02-19T17:47:04.542Z,5.25
2023-02-19T17:50:21.676Z,5.93
2023-02-19T17:53:25.590Z,5.80
2023-02-19T17:56:30.233Z,5.70
2023-02-19T17:59:34.116Z,5.50
2023-02-19T18:02:39.482Z,5.32
2023-02-19T18:05:44.204Z,5.35
2023-02-19T18:08:54.350Z,6.37
2023-02-19T18:11:59.451Z,5.47
2023-02-19T18:15:10.980Z,5.43
2023-02-19T18:18:15.745Z,5.00
2023-02-19T18:21:22.673Z,5.15
2023-02-19T18:24:28.118Z,5.73
2023-02-19T18:27:32.712Z,5.47
2023-02-19T18:30:37.242Z,5.20
2023-02-19T18:33:43.209Z,6.15
2023-02-19T18:36:53.009Z,5.30
2023-02-19T18:40:00.512Z,4.97
2023-02-19T18:43:05.937Z,5.30
2023-02-19T18:46:10.876Z,5.80
2023-02-19T18:49:16.871Z,6.30
2023-02-19T18:52:25.823Z,6.32
2023-02-19T18:55:31.599Z,6.00
2023-02-19T18:58:35.587Z,5.25
2023-02-19T19:01:40.442Z,5.47
2023-02-19T19:04:54.140Z,6.05
2023-02-19T19:08:00.760Z,6.20
2023-02-19T19:11:05.733Z,5.57
2023-02-19T19:14:11.232Z,5.13
2023-02-19T19:17:17.059Z,5.68
2023-02-19T19:20:24.131Z,5.93
2023-02-19T19:23:31.465Z,5.20
2023-02-19T19:26:38.507Z,5.53
2023-02-19T19:29:44.888Z,5.25
2023-02-19T19:32:53.846Z,5.53
2023-02-19T19:35:59.174Z,5.20
2023-02-19T19:39:03.701Z,5.60
2023-02-19T19:42:10.788Z,5.13
2023-02-19T19:45:16.640Z,5.45
2023-02-19T19:48:25.631Z,5.03
2023-02-19T19:51:35.156Z,4.80
2023-02-19T19:54:42.506Z,5.68
2023-02-19T19:57:53.116Z,5.30
2023-02-19T20:00:59.832Z,5.15
2023-02-19T20:04:05.917Z,4.88
2023-02-19T20:07:10.886Z,5.20
2023-02-19T20:10:19.985Z,5.07
2023-02-19T20:13:25.743Z,5.30
2023-02-19T20:16:29.780Z,5.65
2023-02-19T20:19:33.953Z,5.25
2023-02-19T20:22:39.528Z,5.68
2023-02-19T20:25:43.776Z,4.85
2023-02-19T20:28:49.855Z,5.10
2023-02-19T20:31:56.390Z,5.50
2023-02-19T20:35:01.990Z,5.18
2023-02-19T20:38:05.956Z,5.15
2023-02-19T20:41:15.286Z,5.10
2023-02-19T20:44:21.816Z,5.80
2023-02-19T20:47:26.402Z,5.03
2023-02-19T20:50:32.594Z,5.45
2023-02-19T20:53:38.392Z,4.72
2023-02-19T20:56:48.649Z,4.85
2023-02-19T20:59:52.626Z,5.00
2023-02-19T21:02:57.971Z,5.03
2023-02-19T21:06:03.063Z,5.13
2023-02-19T21:09:08.708Z,4.85
2023-02-19T21:12:12.956Z,4.70
2023-02-19T21:15:16.705Z,5.27
2023-02-19T21:18:21.019Z,5.10
2023-02-19T21:21:34.292Z,5.47
2023-02-19T21:24:39.295Z,4.95
2023-02-19T21:27:43.236Z,5.55
2023-02-19T21:30:49.284Z,5.53
2023-02-19T21:33:55.372Z,4.50
2023-02-19T21:37:00.432Z,4.95
2023-02-19T21:40:03.494Z,4.82
2023-02-19T21:43:06.661Z,5.55
2023-02-19T21:46:10.497Z,4.63
2023-02-19T21:49:13.757Z,4.90
2023-02-19T21:52:17.053Z,5.57
2023-02-19T21:55:20.523Z,4.20
2023-02-19T21:58:25.821Z,5.22
2023-02-19T22:01:32.511Z,5.70
2023-02-19T22:04:35.200Z,4.45
2023-02-19T22:07:38.555Z,4.85
2023-02-19T22:10:43.556Z,4.53
2023-02-19T22:13:46.543Z,4.88
2023-02-19T22:16:49.317Z,3.97
2023-02-19T22:19:52.189Z,4.05
2023-02-19T22:22:54.900Z,5.18
2023-02-19T22:25:57.663Z,4.47
2023-02-19T22:29:02.768Z,4.70
2023-02-19T22:32:05.591Z,5.07
2023-02-19T22:35:08.398Z,4.45
2023-02-19T22:38:11.150Z,4.68
2023-02-19T22:41:14.923Z,4.72
2023-02-19T22:44:17.909Z,4.07
2023-02-19T22:47:20.616Z,4.43
2023-02-19T22:50:23.890Z,5.10
2023-02-19T22:53:26.642Z,4.43
2023-02-19T22:56:29.736Z,4.80
2023-02-19T22:59:32.601Z,4.43
2023-02-19T23:02:35.640Z,5.13
2023-02-19T23:05:38.524Z,4.93
2023-02-19T23:08:42.489Z,4.93
2023-02-19T23:11:45.676Z,4.53
2023-02-19T23:14:48.251Z,4.78
2023-02-19T23:17:50.960Z,4.37
2023-02-19T23:20:53.557Z,4.78
2023-02-19T23:23:56.145Z,4.40
2023-02-19T23:27:00.689Z,4.75
2023-02-19T23:30:03.766Z,4.20
2023-02-19T23:33:06.561Z,4.90
2023-02-19T23:36:10.342Z,4.35
2023-02-19T23:39:15.248Z,4.35
2023-02-19T23:42:18.028Z,4.47
2023-02-19T23:45:20.782Z,3.70
2023-02-19T23:48:23.410Z,4.97
2023-02-19T23:51:26.571Z,4.78
2023-02-19T23:54:29.487Z,4.32
2023-02-19T23:57:32.065Z,4.93
